sensor_id;sensor_type;location;lat;lon;timestamp;P1;durP1;ratioP1;P2;durP2;ratioP2
35576;SDS011;21680;52.400;16.920;2022-12-07T00:01:25;23.60;;;10.10;;
35576;SDS011;21680;52.400;16.920;2022-12-07T00:03:52;20.10;;;10.10;;
35576;SDS011;21680;52.400;16.920;2022-12-07T00:06:22;25.60;;;10.90;;
35576;SDS011;21680;52.400;16.920;2022-12-07T00:08:47;26.30;;;10.70;;
35576;SDS011;21680;52.400;16.920;2022-12-07T00:11:14;23.00;;;11.60;;
35576;SDS011;21680;52.400;16.920;2022-12-07T00:13:41;25.00;;;10.50;;
35576;SDS011;21680;52.400;16.920;2022-12-07T00:16:14;24.60;;;10.50;;
35576;SDS011;21680;52.400;16.920;2022-12-07T00:18:42;24.30;;;11.00;;
35576;SDS011;21680;52.400;16.920;2022-12-07T00:21:12;23.30;;;10.60;;
35576;SDS011;21680;52.400;16.920;2022-12-07T00:23:39;26.30;;;10.00;;
35576;SDS011;21680;52.400;16.920;2022-12-07T00:28:30;26.40;;;11.70;;
35576;SDS011;21680;52.400;16.920;2022-12-07T00:31:06;30.60;;;13.40;;
35576;SDS011;21680;52.400;16.920;2022-12-07T00:33:33;25.30;;;11.20;;
35576;SDS011;21680;52.400;16.920;2022-12-07T00:36:00;30.90;;;12.60;;
35576;SDS011;21680;52.400;16.920;2022-12-07T00:38:27;24.80;;;11.50;;
35576;SDS011;21680;52.400;16.920;2022-12-07T00:40:55;27.40;;;11.80;;
35576;SDS011;21680;52.400;16.920;2022-12-07T00:43:21;29.40;;;12.80;;
35576;SDS011;21680;52.400;16.920;2022-12-07T00:45:47;26.70;;;12.90;;
35576;SDS011;21680;52.400;16.920;2022-12-07T00:48:12;25.60;;;12.50;;
35576;SDS011;21680;52.400;16.920;2022-12-07T00:50:37;33.30;;;12.60;;
35576;SDS011;21680;52.400;16.920;2022-12-07T00:53:02;28.10;;;12.00;;
35576;SDS011;21680;52.400;16.920;2022-12-07T00:55:28;35.10;;;13.00;;
35576;SDS011;21680;52.400;16.920;2022-12-07T00:57:53;33.00;;;12.70;;
35576;SDS011;21680;52.400;16.920;2022-12-07T01:00:18;24.10;;;11.60;;
35576;SDS011;21680;52.400;16.920;2022-12-07T01:02:44;24.90;;;11.90;;
35576;SDS011;21680;52.400;16.920;2022-12-07T01:05:09;26.40;;;11.90;;
35576;SDS011;21680;52.400;16.920;2022-12-07T01:07:34;28.90;;;12.70;;
35576;SDS011;21680;52.400;16.920;2022-12-07T01:09:59;29.80;;;12.60;;
35576;SDS011;21680;52.400;16.920;2022-12-07T01:12:25;29.00;;;13.70;;
35576;SDS011;21680;52.400;16.920;2022-12-07T01:14:50;29.90;;;13.00;;
35576;SDS011;21680;52.400;16.920;2022-12-07T01:17:15;34.70;;;15.70;;
35576;SDS011;21680;52.400;16.920;2022-12-07T01:19:40;34.60;;;14.90;;
35576;SDS011;21680;52.400;16.920;2022-12-07T01:22:06;29.50;;;12.70;;
35576;SDS011;21680;52.400;16.920;2022-12-07T01:24:31;25.60;;;13.80;;
35576;SDS011;21680;52.400;16.920;2022-12-07T01:26:56;36.30;;;13.40;;
35576;SDS011;21680;52.400;16.920;2022-12-07T01:29:21;29.60;;;13.40;;
35576;SDS011;21680;52.400;16.920;2022-12-07T01:31:48;31.10;;;12.50;;
35576;SDS011;21680;52.400;16.920;2022-12-07T01:34:14;28.60;;;12.80;;
35576;SDS011;21680;52.400;16.920;2022-12-07T01:36:39;31.90;;;14.40;;
35576;SDS011;21680;52.400;16.920;2022-12-07T01:39:05;28.00;;;13.70;;
35576;SDS011;21680;52.400;16.920;2022-12-07T01:41:33;27.00;;;12.60;;
35576;SDS011;21680;52.400;16.920;2022-12-07T01:49:23;26.80;;;12.00;;
35576;SDS011;21680;52.400;16.920;2022-12-07T01:51:51;25.30;;;11.10;;
35576;SDS011;21680;52.400;16.920;2022-12-07T01:54:19;24.40;;;11.60;;
35576;SDS011;21680;52.400;16.920;2022-12-07T01:56:50;23.50;;;10.80;;
35576;SDS011;21680;52.400;16.920;2022-12-07T01:59:18;29.10;;;11.40;;
35576;SDS011;21680;52.400;16.920;2022-12-07T02:01:49;22.40;;;11.30;;
35576;SDS011;21680;52.400;16.920;2022-12-07T02:04:15;24.70;;;12.00;;
35576;SDS011;21680;52.400;16.920;2022-12-07T02:06:40;22.70;;;11.60;;
35576;SDS011;21680;52.400;16.920;2022-12-07T02:09:07;26.70;;;12.40;;
35576;SDS011;21680;52.400;16.920;2022-12-07T02:11:32;22.20;;;10.80;;
35576;SDS011;21680;52.400;16.920;2022-12-07T02:13:58;26.30;;;11.70;;
35576;SDS011;21680;52.400;16.920;2022-12-07T02:24:43;23.80;;;11.30;;
35576;SDS011;21680;52.400;16.920;2022-12-07T02:27:34;23.10;;;11.90;;
35576;SDS011;21680;52.400;16.920;2022-12-07T02:30:21;20.90;;;9.70;;
35576;SDS011;21680;52.400;16.920;2022-12-07T02:32:54;21.20;;;10.30;;
35576;SDS011;21680;52.400;16.920;2022-12-07T02:35:41;20.10;;;10.70;;
35576;SDS011;21680;52.400;16.920;2022-12-07T02:38:13;23.10;;;11.90;;
35576;SDS011;21680;52.400;16.920;2022-12-07T02:41:03;18.80;;;9.80;;
35576;SDS011;21680;52.400;16.920;2022-12-07T02:43:33;18.90;;;10.40;;
35576;SDS011;21680;52.400;16.920;2022-12-07T02:46:07;24.40;;;10.30;;
35576;SDS011;21680;52.400;16.920;2022-12-07T02:48:36;22.40;;;11.30;;
35576;SDS011;21680;52.400;16.920;2022-12-07T02:51:04;18.70;;;9.50;;
35576;SDS011;21680;52.400;16.920;2022-12-07T02:53:30;19.10;;;10.00;;
35576;SDS011;21680;52.400;16.920;2022-12-07T02:59:22;19.00;;;10.00;;
35576;SDS011;21680;52.400;16.920;2022-12-07T03:02:24;18.60;;;10.40;;
35576;SDS011;21680;52.400;16.920;2022-12-07T03:07:34;21.20;;;10.80;;
35576;SDS011;21680;52.400;16.920;2022-12-07T03:15:50;20.80;;;10.60;;
35576;SDS011;21680;52.400;16.920;2022-12-07T03:18:18;20.00;;;10.20;;
35576;SDS011;21680;52.400;16.920;2022-12-07T03:20:47;20.30;;;10.20;;
35576;SDS011;21680;52.400;16.920;2022-12-07T03:23:16;18.90;;;10.90;;
35576;SDS011;21680;52.400;16.920;2022-12-07T03:25:45;19.80;;;9.90;;
35576;SDS011;21680;52.400;16.920;2022-12-07T03:28:18;18.90;;;9.80;;
35576;SDS011;21680;52.400;16.920;2022-12-07T03:30:47;15.90;;;9.10;;
35576;SDS011;21680;52.400;16.920;2022-12-07T03:33:24;18.60;;;10.20;;
35576;SDS011;21680;52.400;16.920;2022-12-07T03:41:22;17.50;;;9.20;;
35576;SDS011;21680;52.400;16.920;2022-12-07T03:43:50;16.20;;;9.30;;
35576;SDS011;21680;52.400;16.920;2022-12-07T03:48:54;13.50;;;8.40;;
35576;SDS011;21680;52.400;16.920;2022-12-07T03:51:46;14.80;;;8.40;;
35576;SDS011;21680;52.400;16.920;2022-12-07T03:54:39;16.70;;;8.50;;
35576;SDS011;21680;52.400;16.920;2022-12-07T03:57:08;12.80;;;7.40;;
35576;SDS011;21680;52.400;16.920;2022-12-07T03:59:37;14.30;;;8.40;;
35576;SDS011;21680;52.400;16.920;2022-12-07T04:02:04;14.90;;;7.90;;
35576;SDS011;21680;52.400;16.920;2022-12-07T04:04:31;16.10;;;9.20;;
35576;SDS011;21680;52.400;16.920;2022-12-07T04:06:58;14.70;;;8.60;;
35576;SDS011;21680;52.400;16.920;2022-12-07T04:09:23;15.40;;;9.10;;
35576;SDS011;21680;52.400;16.920;2022-12-07T04:11:49;15.70;;;8.80;;
35576;SDS011;21680;52.400;16.920;2022-12-07T04:14:15;23.10;;;9.60;;
35576;SDS011;21680;52.400;16.920;2022-12-07T04:16:50;15.40;;;8.90;;
35576;SDS011;21680;52.400;16.920;2022-12-07T04:19:24;14.40;;;8.40;;
35576;SDS011;21680;52.400;16.920;2022-12-07T04:21:52;17.30;;;9.30;;
35576;SDS011;21680;52.400;16.920;2022-12-07T04:24:17;18.20;;;9.00;;
35576;SDS011;21680;52.400;16.920;2022-12-07T04:26:45;15.80;;;9.50;;
35576;SDS011;21680;52.400;16.920;2022-12-07T04:29:11;17.70;;;9.60;;
35576;SDS011;21680;52.400;16.920;2022-12-07T04:31:37;17.90;;;10.30;;
35576;SDS011;21680;52.400;16.920;2022-12-07T04:34:03;21.50;;;11.10;;
35576;SDS011;21680;52.400;16.920;2022-12-07T04:36:29;17.60;;;10.00;;
35576;SDS011;21680;52.400;16.920;2022-12-07T04:38:55;26.30;;;11.80;;
35576;SDS011;21680;52.400;16.920;2022-12-07T04:41:22;24.70;;;11.60;;
35576;SDS011;21680;52.400;16.920;2022-12-07T04:44:00;19.10;;;11.70;;
35576;SDS011;21680;52.400;16.920;2022-12-07T04:46:27;23.80;;;12.20;;
35576;SDS011;21680;52.400;16.920;2022-12-07T04:48:54;23.50;;;11.50;;
35576;SDS011;21680;52.400;16.920;2022-12-07T04:51:22;21.60;;;12.20;;
35576;SDS011;21680;52.400;16.920;2022-12-07T04:53:49;21.60;;;12.10;;
35576;SDS011;21680;52.400;16.920;2022-12-07T04:56:15;20.90;;;12.40;;
35576;SDS011;21680;52.400;16.920;2022-12-07T04:58:42;21.40;;;11.60;;
35576;SDS011;21680;52.400;16.920;2022-12-07T05:01:08;21.30;;;11.70;;
35576;SDS011;21680;52.400;16.920;2022-12-07T05:03:33;24.20;;;12.30;;
35576;SDS011;21680;52.400;16.920;2022-12-07T05:05:59;21.60;;;11.50;;
35576;SDS011;21680;52.400;16.920;2022-12-07T05:08:24;18.90;;;10.60;;
35576;SDS011;21680;52.400;16.920;2022-12-07T05:10:49;19.40;;;11.40;;
35576;SDS011;21680;52.400;16.920;2022-12-07T05:13:15;20.90;;;11.00;;
35576;SDS011;21680;52.400;16.920;2022-12-07T05:15:40;18.40;;;11.10;;
35576;SDS011;21680;52.400;16.920;2022-12-07T05:18:09;22.40;;;12.10;;
35576;SDS011;21680;52.400;16.920;2022-12-07T05:20:35;22.80;;;11.30;;
35576;SDS011;21680;52.400;16.920;2022-12-07T05:23:00;21.10;;;11.40;;
35576;SDS011;21680;52.400;16.920;2022-12-07T05:25:25;19.50;;;10.90;;
35576;SDS011;21680;52.400;16.920;2022-12-07T05:27:50;19.60;;;10.80;;
35576;SDS011;21680;52.400;16.920;2022-12-07T05:30:16;24.00;;;11.50;;
35576;SDS011;21680;52.400;16.920;2022-12-07T05:32:41;19.10;;;10.90;;
35576;SDS011;21680;52.400;16.920;2022-12-07T05:35:06;22.20;;;11.60;;
35576;SDS011;21680;52.400;16.920;2022-12-07T05:37:32;22.30;;;11.70;;
35576;SDS011;21680;52.400;16.920;2022-12-07T05:39:57;23.20;;;12.20;;
35576;SDS011;21680;52.400;16.920;2022-12-07T05:42:23;23.90;;;12.30;;
35576;SDS011;21680;52.400;16.920;2022-12-07T05:44:48;23.80;;;13.40;;
35576;SDS011;21680;52.400;16.920;2022-12-07T05:47:14;24.20;;;13.00;;
35576;SDS011;21680;52.400;16.920;2022-12-07T05:49:40;24.90;;;12.40;;
35576;SDS011;21680;52.400;16.920;2022-12-07T05:52:05;25.30;;;13.10;;
35576;SDS011;21680;52.400;16.920;2022-12-07T05:54:31;25.40;;;12.60;;
35576;SDS011;21680;52.400;16.920;2022-12-07T05:56:57;21.40;;;12.10;;
35576;SDS011;21680;52.400;16.920;2022-12-07T05:59:22;24.30;;;13.30;;
35576;SDS011;21680;52.400;16.920;2022-12-07T06:02:22;22.20;;;10.70;;
35576;SDS011;21680;52.400;16.920;2022-12-07T06:04:42;20.20;;;11.20;;
35576;SDS011;21680;52.400;16.920;2022-12-07T06:07:09;22.10;;;12.00;;
35576;SDS011;21680;52.400;16.920;2022-12-07T06:09:37;15.50;;;9.10;;
35576;SDS011;21680;52.400;16.920;2022-12-07T06:12:02;16.90;;;9.50;;
35576;SDS011;21680;52.400;16.920;2022-12-07T06:14:47;19.90;;;10.40;;
35576;SDS011;21680;52.400;16.920;2022-12-07T06:17:12;24.60;;;12.60;;
35576;SDS011;21680;52.400;16.920;2022-12-07T06:19:39;29.80;;;13.00;;
35576;SDS011;21680;52.400;16.920;2022-12-07T06:22:05;19.30;;;11.50;;
35576;SDS011;21680;52.400;16.920;2022-12-07T06:24:31;19.90;;;9.70;;
35576;SDS011;21680;52.400;16.920;2022-12-07T06:26:57;16.50;;;9.60;;
35576;SDS011;21680;52.400;16.920;2022-12-07T06:29:23;17.90;;;10.50;;
35576;SDS011;21680;52.400;16.920;2022-12-07T06:31:49;15.60;;;9.70;;
35576;SDS011;21680;52.400;16.920;2022-12-07T06:34:16;18.40;;;10.10;;
35576;SDS011;21680;52.400;16.920;2022-12-07T06:36:43;16.40;;;9.10;;
35576;SDS011;21680;52.400;16.920;2022-12-07T06:39:09;16.70;;;8.80;;
35576;SDS011;21680;52.400;16.920;2022-12-07T06:41:38;23.60;;;11.40;;
35576;SDS011;21680;52.400;16.920;2022-12-07T06:44:06;18.40;;;9.00;;
35576;SDS011;21680;52.400;16.920;2022-12-07T06:46:32;19.30;;;9.40;;
35576;SDS011;21680;52.400;16.920;2022-12-07T06:48:57;17.30;;;9.40;;
35576;SDS011;21680;52.400;16.920;2022-12-07T06:51:22;16.80;;;8.50;;
35576;SDS011;21680;52.400;16.920;2022-12-07T06:53:48;15.00;;;9.30;;
35576;SDS011;21680;52.400;16.920;2022-12-07T06:56:13;17.40;;;8.90;;
35576;SDS011;21680;52.400;16.920;2022-12-07T06:58:38;16.60;;;9.40;;
35576;SDS011;21680;52.400;16.920;2022-12-07T07:01:10;16.70;;;9.70;;
35576;SDS011;21680;52.400;16.920;2022-12-07T07:03:40;20.30;;;9.30;;
35576;SDS011;21680;52.400;16.920;2022-12-07T07:06:06;15.80;;;7.90;;
35576;SDS011;21680;52.400;16.920;2022-12-07T07:08:32;15.20;;;8.90;;
35576;SDS011;21680;52.400;16.920;2022-12-07T07:10:58;15.20;;;9.10;;
35576;SDS011;21680;52.400;16.920;2022-12-07T07:13:23;26.40;;;12.30;;
35576;SDS011;21680;52.400;16.920;2022-12-07T07:15:49;25.10;;;11.60;;
35576;SDS011;21680;52.400;16.920;2022-12-07T07:18:14;21.30;;;10.20;;
35576;SDS011;21680;52.400;16.920;2022-12-07T07:20:39;17.40;;;8.80;;
35576;SDS011;21680;52.400;16.920;2022-12-07T07:23:05;16.20;;;8.70;;
35576;SDS011;21680;52.400;16.920;2022-12-07T07:25:31;17.40;;;8.80;;
35576;SDS011;21680;52.400;16.920;2022-12-07T07:27:57;21.40;;;9.00;;
35576;SDS011;21680;52.400;16.920;2022-12-07T07:30:22;18.10;;;8.60;;
35576;SDS011;21680;52.400;16.920;2022-12-07T07:32:48;15.20;;;8.00;;
35576;SDS011;21680;52.400;16.920;2022-12-07T07:35:13;15.60;;;8.00;;
35576;SDS011;21680;52.400;16.920;2022-12-07T07:37:39;13.50;;;7.10;;
35576;SDS011;21680;52.400;16.920;2022-12-07T07:40:05;16.70;;;7.30;;
35576;SDS011;21680;52.400;16.920;2022-12-07T07:42:30;15.00;;;7.30;;
35576;SDS011;21680;52.400;16.920;2022-12-07T07:44:56;11.80;;;6.30;;
35576;SDS011;21680;52.400;16.920;2022-12-07T07:47:21;12.90;;;6.30;;
35576;SDS011;21680;52.400;16.920;2022-12-07T07:49:46;11.00;;;6.20;;
35576;SDS011;21680;52.400;16.920;2022-12-07T07:52:11;13.40;;;6.00;;
35576;SDS011;21680;52.400;16.920;2022-12-07T07:54:37;12.60;;;5.90;;
35576;SDS011;21680;52.400;16.920;2022-12-07T07:57:02;10.40;;;5.30;;
35576;SDS011;21680;52.400;16.920;2022-12-07T07:59:27;13.30;;;5.70;;
35576;SDS011;21680;52.400;16.920;2022-12-07T08:01:53;11.50;;;6.00;;
35576;SDS011;21680;52.400;16.920;2022-12-07T08:04:18;10.50;;;5.90;;
35576;SDS011;21680;52.400;16.920;2022-12-07T08:06:43;8.70;;;4.90;;
35576;SDS011;21680;52.400;16.920;2022-12-07T08:09:08;11.30;;;6.00;;
35576;SDS011;21680;52.400;16.920;2022-12-07T08:11:35;12.90;;;5.60;;
35576;SDS011;21680;52.400;16.920;2022-12-07T08:14:01;13.40;;;6.80;;
35576;SDS011;21680;52.400;16.920;2022-12-07T08:16:26;16.30;;;8.20;;
35576;SDS011;21680;52.400;16.920;2022-12-07T08:18:52;15.80;;;8.50;;
35576;SDS011;21680;52.400;16.920;2022-12-07T08:21:17;21.60;;;9.10;;
35576;SDS011;21680;52.400;16.920;2022-12-07T08:23:42;17.70;;;8.80;;
35576;SDS011;21680;52.400;16.920;2022-12-07T08:26:09;18.40;;;9.50;;
35576;SDS011;21680;52.400;16.920;2022-12-07T08:28:37;20.80;;;10.80;;
35576;SDS011;21680;52.400;16.920;2022-12-07T08:31:04;18.10;;;9.30;;
35576;SDS011;21680;52.400;16.920;2022-12-07T08:33:32;22.00;;;9.70;;
35576;SDS011;21680;52.400;16.920;2022-12-07T08:36:01;19.50;;;10.20;;
35576;SDS011;21680;52.400;16.920;2022-12-07T08:38:30;23.40;;;10.80;;
35576;SDS011;21680;52.400;16.920;2022-12-07T08:40:56;23.10;;;10.30;;
35576;SDS011;21680;52.400;16.920;2022-12-07T08:43:23;20.40;;;10.30;;
35576;SDS011;21680;52.400;16.920;2022-12-07T08:45:49;21.40;;;9.80;;
35576;SDS011;21680;52.400;16.920;2022-12-07T08:48:24;22.30;;;10.50;;
35576;SDS011;21680;52.400;16.920;2022-12-07T08:50:50;21.00;;;9.90;;
35576;SDS011;21680;52.400;16.920;2022-12-07T08:53:16;16.10;;;8.90;;
35576;SDS011;21680;52.400;16.920;2022-12-07T08:55:43;18.00;;;9.10;;
35576;SDS011;21680;52.400;16.920;2022-12-07T08:58:09;19.80;;;9.10;;
35576;SDS011;21680;52.400;16.920;2022-12-07T09:00:35;20.10;;;8.60;;
35576;SDS011;21680;52.400;16.920;2022-12-07T09:03:01;19.70;;;9.00;;
35576;SDS011;21680;52.400;16.920;2022-12-07T09:05:26;18.70;;;9.80;;
35576;SDS011;21680;52.400;16.920;2022-12-07T09:07:52;21.80;;;10.20;;
35576;SDS011;21680;52.400;16.920;2022-12-07T09:10:21;21.90;;;10.70;;
35576;SDS011;21680;52.400;16.920;2022-12-07T09:12:47;23.80;;;11.10;;
35576;SDS011;21680;52.400;16.920;2022-12-07T09:15:12;21.90;;;10.20;;
35576;SDS011;21680;52.400;16.920;2022-12-07T09:17:38;21.70;;;10.80;;
35576;SDS011;21680;52.400;16.920;2022-12-07T09:20:04;23.90;;;10.90;;
35576;SDS011;21680;52.400;16.920;2022-12-07T09:22:31;27.10;;;12.30;;
35576;SDS011;21680;52.400;16.920;2022-12-07T09:24:57;29.90;;;13.30;;
35576;SDS011;21680;52.400;16.920;2022-12-07T09:27:23;26.10;;;12.20;;
35576;SDS011;21680;52.400;16.920;2022-12-07T09:29:49;26.60;;;12.90;;
35576;SDS011;21680;52.400;16.920;2022-12-07T09:32:14;30.80;;;12.90;;
35576;SDS011;21680;52.400;16.920;2022-12-07T09:34:39;27.70;;;13.70;;
35576;SDS011;21680;52.400;16.920;2022-12-07T09:37:05;25.30;;;12.70;;
35576;SDS011;21680;52.400;16.920;2022-12-07T09:39:31;28.90;;;13.80;;
35576;SDS011;21680;52.400;16.920;2022-12-07T09:41:57;31.80;;;15.90;;
35576;SDS011;21680;52.400;16.920;2022-12-07T09:44:24;31.60;;;14.10;;
35576;SDS011;21680;52.400;16.920;2022-12-07T09:46:51;30.80;;;15.10;;
35576;SDS011;21680;52.400;16.920;2022-12-07T09:49:19;31.50;;;15.20;;
35576;SDS011;21680;52.400;16.920;2022-12-07T09:51:46;34.90;;;15.70;;
35576;SDS011;21680;52.400;16.920;2022-12-07T09:54:14;49.80;;;22.20;;
35576;SDS011;21680;52.400;16.920;2022-12-07T09:56:40;39.90;;;19.40;;
35576;SDS011;21680;52.400;16.920;2022-12-07T09:59:09;43.40;;;22.70;;
35576;SDS011;21680;52.400;16.920;2022-12-07T10:01:41;49.60;;;24.30;;
35576;SDS011;21680;52.400;16.920;2022-12-07T10:04:11;32.10;;;16.40;;
35576;SDS011;21680;52.400;16.920;2022-12-07T10:06:41;47.00;;;23.30;;
35576;SDS011;21680;52.400;16.920;2022-12-07T10:09:13;33.60;;;18.00;;
35576;SDS011;21680;52.400;16.920;2022-12-07T10:12:01;38.30;;;17.60;;
35576;SDS011;21680;52.400;16.920;2022-12-07T10:14:29;32.10;;;14.80;;
35576;SDS011;21680;52.400;16.920;2022-12-07T10:16:56;32.00;;;15.40;;
35576;SDS011;21680;52.400;16.920;2022-12-07T10:19:23;33.50;;;16.40;;
35576;SDS011;21680;52.400;16.920;2022-12-07T10:21:59;53.80;;;24.30;;
35576;SDS011;21680;52.400;16.920;2022-12-07T10:24:25;50.40;;;25.40;;
35576;SDS011;21680;52.400;16.920;2022-12-07T10:26:51;51.60;;;27.40;;
35576;SDS011;21680;52.400;16.920;2022-12-07T10:29:18;53.10;;;25.80;;
35576;SDS011;21680;52.400;16.920;2022-12-07T10:31:49;42.30;;;22.10;;
35576;SDS011;21680;52.400;16.920;2022-12-07T10:36:51;31.10;;;15.60;;
35576;SDS011;21680;52.400;16.920;2022-12-07T10:39:18;35.80;;;17.30;;
35576;SDS011;21680;52.400;16.920;2022-12-07T10:42:01;32.30;;;15.90;;
35576;SDS011;21680;52.400;16.920;2022-12-07T10:44:29;30.60;;;15.20;;
35576;SDS011;21680;52.400;16.920;2022-12-07T10:55:24;29.90;;;14.80;;
35576;SDS011;21680;52.400;16.920;2022-12-07T11:00:43;31.70;;;15.40;;
35576;SDS011;21680;52.400;16.920;2022-12-07T11:03:35;32.60;;;15.20;;
35576;SDS011;21680;52.400;16.920;2022-12-07T11:06:16;31.60;;;15.90;;
35576;SDS011;21680;52.400;16.920;2022-12-07T11:08:57;35.60;;;15.40;;
35576;SDS011;21680;52.400;16.920;2022-12-07T11:17:18;36.80;;;18.10;;
35576;SDS011;21680;52.400;16.920;2022-12-07T11:20:02;38.10;;;17.00;;
35576;SDS011;21680;52.400;16.920;2022-12-07T11:22:46;33.10;;;16.00;;
35576;SDS011;21680;52.400;16.920;2022-12-07T11:31:41;28.20;;;14.00;;
35576;SDS011;21680;52.400;16.920;2022-12-07T11:34:23;32.90;;;14.90;;
35576;SDS011;21680;52.400;16.920;2022-12-07T11:36:59;21.90;;;12.20;;
35576;SDS011;21680;52.400;16.920;2022-12-07T11:42:10;34.30;;;13.90;;
35576;SDS011;21680;52.400;16.920;2022-12-07T11:44:47;30.80;;;15.10;;
35576;SDS011;21680;52.400;16.920;2022-12-07T11:47:38;30.80;;;15.10;;
35576;SDS011;21680;52.400;16.920;2022-12-07T11:52:58;34.90;;;16.90;;
35576;SDS011;21680;52.400;16.920;2022-12-07T11:58:08;43.60;;;17.70;;
35576;SDS011;21680;52.400;16.920;2022-12-07T12:01:42;40.00;;;17.80;;
35576;SDS011;21680;52.400;16.920;2022-12-07T12:04:01;38.10;;;18.60;;
35576;SDS011;21680;52.400;16.920;2022-12-07T12:06:29;31.90;;;14.80;;
35576;SDS011;21680;52.400;16.920;2022-12-07T12:08:56;38.90;;;16.90;;
35576;SDS011;21680;52.400;16.920;2022-12-07T12:19:34;33.20;;;16.80;;
35576;SDS011;21680;52.400;16.920;2022-12-07T12:22:15;28.50;;;15.00;;
35576;SDS011;21680;52.400;16.920;2022-12-07T12:24:44;34.30;;;14.50;;
35576;SDS011;21680;52.400;16.920;2022-12-07T12:27:23;33.90;;;15.70;;
35576;SDS011;21680;52.400;16.920;2022-12-07T12:29:57;27.20;;;12.90;;
35576;SDS011;21680;52.400;16.920;2022-12-07T12:32:32;37.50;;;17.80;;
35576;SDS011;21680;52.400;16.920;2022-12-07T12:37:53;26.80;;;13.20;;
35576;SDS011;21680;52.400;16.920;2022-12-07T12:42:51;30.20;;;17.00;;
35576;SDS011;21680;52.400;16.920;2022-12-07T12:48:01;27.20;;;14.00;;
35576;SDS011;21680;52.400;16.920;2022-12-07T12:50:28;25.80;;;14.10;;
35576;SDS011;21680;52.400;16.920;2022-12-07T12:53:05;29.00;;;14.90;;
35576;SDS011;21680;52.400;16.920;2022-12-07T13:00:44;25.50;;;13.50;;
35576;SDS011;21680;52.400;16.920;2022-12-07T13:03:27;25.90;;;12.90;;
35576;SDS011;21680;52.400;16.920;2022-12-07T13:08:44;28.60;;;11.90;;
35576;SDS011;21680;52.400;16.920;2022-12-07T13:17:05;30.60;;;12.90;;
35576;SDS011;21680;52.400;16.920;2022-12-07T13:19:52;25.60;;;12.80;;
35576;SDS011;21680;52.400;16.920;2022-12-07T13:27:21;25.70;;;11.80;;
35576;SDS011;21680;52.400;16.920;2022-12-07T13:29:49;20.70;;;8.90;;
35576;SDS011;21680;52.400;16.920;2022-12-07T13:32:22;23.20;;;10.00;;
35576;SDS011;21680;52.400;16.920;2022-12-07T13:34:50;26.90;;;12.00;;
35576;SDS011;21680;52.400;16.920;2022-12-07T13:37:19;11.30;;;6.10;;
35576;SDS011;21680;52.400;16.920;2022-12-07T13:39:54;13.00;;;6.20;;
35576;SDS011;21680;52.400;16.920;2022-12-07T13:42:25;13.40;;;6.70;;
35576;SDS011;21680;52.400;16.920;2022-12-07T13:44:53;13.20;;;7.00;;
35576;SDS011;21680;52.400;16.920;2022-12-07T13:50:21;16.40;;;7.40;;
35576;SDS011;21680;52.400;16.920;2022-12-07T13:52:48;11.50;;;6.00;;
35576;SDS011;21680;52.400;16.920;2022-12-07T13:55:15;18.00;;;8.00;;
35576;SDS011;21680;52.400;16.920;2022-12-07T13:57:50;13.10;;;7.20;;
35576;SDS011;21680;52.400;16.920;2022-12-07T14:00:18;17.00;;;9.10;;
35576;SDS011;21680;52.400;16.920;2022-12-07T14:05:26;20.70;;;10.40;;
35576;SDS011;21680;52.400;16.920;2022-12-07T14:10:24;21.80;;;11.80;;
35576;SDS011;21680;52.400;16.920;2022-12-07T14:12:52;19.10;;;10.20;;
35576;SDS011;21680;52.400;16.920;2022-12-07T14:15:21;17.30;;;9.30;;
35576;SDS011;21680;52.400;16.920;2022-12-07T14:17:54;15.20;;;8.50;;
35576;SDS011;21680;52.400;16.920;2022-12-07T14:20:39;15.00;;;8.30;;
35576;SDS011;21680;52.400;16.920;2022-12-07T14:23:05;15.90;;;7.70;;
35576;SDS011;21680;52.400;16.920;2022-12-07T14:25:49;16.80;;;8.10;;
35576;SDS011;21680;52.400;16.920;2022-12-07T14:28:30;14.50;;;7.40;;
35576;SDS011;21680;52.400;16.920;2022-12-07T14:30:57;15.60;;;8.30;;
35576;SDS011;21680;52.400;16.920;2022-12-07T14:33:23;19.10;;;7.90;;
35576;SDS011;21680;52.400;16.920;2022-12-07T14:35:49;17.10;;;7.90;;
35576;SDS011;21680;52.400;16.920;2022-12-07T14:38:14;16.50;;;9.30;;
35576;SDS011;21680;52.400;16.920;2022-12-07T14:40:43;17.90;;;9.10;;
35576;SDS011;21680;52.400;16.920;2022-12-07T14:43:10;16.60;;;8.80;;
35576;SDS011;21680;52.400;16.920;2022-12-07T14:45:38;14.40;;;8.60;;
35576;SDS011;21680;52.400;16.920;2022-12-07T14:48:04;18.50;;;10.10;;
35576;SDS011;21680;52.400;16.920;2022-12-07T14:50:30;18.30;;;9.90;;
35576;SDS011;21680;52.400;16.920;2022-12-07T14:53:02;22.70;;;11.00;;
35576;SDS011;21680;52.400;16.920;2022-12-07T14:55:36;21.10;;;11.80;;
35576;SDS011;21680;52.400;16.920;2022-12-07T14:58:01;20.50;;;10.60;;
35576;SDS011;21680;52.400;16.920;2022-12-07T15:00:27;19.60;;;9.60;;
35576;SDS011;21680;52.400;16.920;2022-12-07T15:02:53;16.10;;;9.80;;
35576;SDS011;21680;52.400;16.920;2022-12-07T15:05:20;13.90;;;8.20;;
35576;SDS011;21680;52.400;16.920;2022-12-07T15:07:46;16.20;;;8.90;;
35576;SDS011;21680;52.400;16.920;2022-12-07T15:10:16;18.40;;;8.80;;
35576;SDS011;21680;52.400;16.920;2022-12-07T15:12:54;17.40;;;9.10;;
35576;SDS011;21680;52.400;16.920;2022-12-07T15:15:20;14.30;;;7.00;;
35576;SDS011;21680;52.400;16.920;2022-12-07T15:17:45;14.20;;;7.30;;
35576;SDS011;21680;52.400;16.920;2022-12-07T15:20:12;29.50;;;9.40;;
35576;SDS011;21680;52.400;16.920;2022-12-07T15:22:38;12.60;;;6.50;;
35576;SDS011;21680;52.400;16.920;2022-12-07T15:25:03;10.00;;;5.90;;
35576;SDS011;21680;52.400;16.920;2022-12-07T15:27:30;14.10;;;7.60;;
35576;SDS011;21680;52.400;16.920;2022-12-07T15:29:56;12.90;;;7.70;;
35576;SDS011;21680;52.400;16.920;2022-12-07T15:32:21;16.20;;;9.30;;
35576;SDS011;21680;52.400;16.920;2022-12-07T15:34:47;23.00;;;8.80;;
35576;SDS011;21680;52.400;16.920;2022-12-07T15:37:13;17.40;;;8.40;;
35576;SDS011;21680;52.400;16.920;2022-12-07T15:39:38;15.10;;;8.50;;
35576;SDS011;21680;52.400;16.920;2022-12-07T15:42:04;17.60;;;9.10;;
35576;SDS011;21680;52.400;16.920;2022-12-07T15:44:29;18.60;;;8.80;;
35576;SDS011;21680;52.400;16.920;2022-12-07T15:47:13;14.20;;;8.20;;
35576;SDS011;21680;52.400;16.920;2022-12-07T15:49:38;22.00;;;9.90;;
35576;SDS011;21680;52.400;16.920;2022-12-07T15:52:04;18.00;;;8.70;;
35576;SDS011;21680;52.400;16.920;2022-12-07T15:54:29;16.90;;;8.70;;
35576;SDS011;21680;52.400;16.920;2022-12-07T15:56:55;16.50;;;7.90;;
35576;SDS011;21680;52.400;16.920;2022-12-07T15:59:21;23.60;;;11.90;;
35576;SDS011;21680;52.400;16.920;2022-12-07T16:01:47;23.80;;;12.40;;
35576;SDS011;21680;52.400;16.920;2022-12-07T16:04:12;20.40;;;9.80;;
35576;SDS011;21680;52.400;16.920;2022-12-07T16:06:38;20.00;;;9.90;;
35576;SDS011;21680;52.400;16.920;2022-12-07T16:09:04;19.10;;;9.50;;
35576;SDS011;21680;52.400;16.920;2022-12-07T16:11:30;19.00;;;10.40;;
35576;SDS011;21680;52.400;16.920;2022-12-07T16:13:56;20.50;;;10.90;;
35576;SDS011;21680;52.400;16.920;2022-12-07T16:16:22;25.60;;;10.90;;